Time;durP1;ratioP1;P1;durP2;ratioP2;P2;SDS_P1;SDS_P2;PMS_P1;PMS_P2;Temp;Humidity;BMP_temperature;BMP_pressure;BME280_temperature;BME280_humidity;BME280_pressure;Samples;Min_cycle;Max_cycle;Signal;HPM_P1;HPM_P2
2021/11/18 00:02:13;;;;;;;19.00;12.75;;;2.20;94.60;;;;;;5073483;28;20017;-82
2021/11/18 00:04:39;;;;;;;22.92;15.10;;;2.20;94.50;;;;;;5072324;28;20048;-82
2021/11/18 00:07:04;;;;;;;24.35;15.43;;;2.20;94.40;;;;;;5088322;28;20029;-83
2021/11/18 00:09:30;;;;;;;21.48;13.93;;;2.10;94.30;;;;;;5072994;28;20025;-84
2021/11/18 00:11:56;;;;;;;22.92;14.65;;;2.10;94.30;;;;;;5071416;28;20111;-82
2021/11/18 00:14:23;;;;;;;24.55;15.88;;;2.10;94.30;;;;;;5073081;28;20021;-83
2021/11/18 00:16:49;;;;;;;29.52;15.05;;;2.10;94.30;;;;;;5053926;28;20082;-83
2021/11/18 00:19:15;;;;;;;27.48;16.77;;;2.10;94.30;;;;;;5065656;28;20096;-84
2021/11/18 00:21:43;;;;;;;20.27;13.32;;;2.10;94.30;;;;;;5065166;28;20031;-84
2021/11/18 00:24:11;;;;;;;25.48;13.88;;;2.10;94.30;;;;;;5076956;28;20386;-82
2021/11/18 00:26:37;;;;;;;21.83;12.95;;;2.10;94.10;;;;;;5074512;28;20441;-86
2021/11/18 00:29:08;;;;;;;17.85;11.77;;;2.00;93.90;;;;;;5076408;28;20500;-89
2021/11/18 00:31:37;;;;;;;14.18;8.32;;;1.90;93.90;;;;;;5082069;28;20039;-86
2021/11/18 00:34:05;;;;;;;14.77;8.65;;;1.90;93.80;;;;;;5067400;28;20029;-85
2021/11/18 00:36:31;;;;;;;15.70;7.63;;;1.90;93.60;;;;;;5080725;28;20028;-82
2021/11/18 00:38:57;;;;;;;15.60;9.35;;;1.90;93.40;;;;;;5089753;28;20025;-83
2021/11/18 00:41:23;;;;;;;18.80;10.68;;;1.80;93.30;;;;;;5085413;28;20024;-85
2021/11/18 00:43:49;;;;;;;15.75;9.43;;;1.90;93.30;;;;;;5084381;28;20100;-84
2021/11/18 00:46:16;;;;;;;13.82;7.75;;;1.90;93.30;;;;;;5081531;28;20040;-85
2021/11/18 00:48:42;;;;;;;14.85;8.43;;;1.90;93.20;;;;;;5093227;28;20020;-84
2021/11/18 00:51:12;;;;;;;14.40;10.02;;;2.00;93.00;;;;;;5090691;28;20024;-84
2021/11/18 00:53:43;;;;;;;16.80;10.82;;;2.00;92.80;;;;;;5077528;28;20094;-86
2021/11/18 00:56:10;;;;;;;16.48;11.23;;;2.00;92.80;;;;;;5077207;28;20032;-85
2021/11/18 00:58:36;;;;;;;19.15;11.88;;;2.00;92.80;;;;;;5076602;28;20015;-83
2021/11/18 01:01:03;;;;;;;17.08;10.57;;;1.90;92.70;;;;;;5075029;28;20388;-84
2021/11/18 01:03:31;;;;;;;20.52;12.50;;;1.90;93.00;;;;;;5076211;28;20546;-84
2021/11/18 01:05:58;;;;;;;16.42;9.80;;;1.90;92.70;;;;;;5075613;28;20102;-83
2021/11/18 01:08:24;;;;;;;20.65;10.73;;;1.90;92.60;;;;;;5075527;28;20503;-86
2021/11/18 01:10:57;;;;;;;14.93;8.73;;;1.80;92.50;;;;;;5075825;28;20086;-84
2021/11/18 01:13:25;;;;;;;19.27;12.55;;;1.80;92.40;;;;;;5075848;28;20027;-86
2021/11/18 01:15:52;;;;;;;17.13;11.07;;;1.70;92.50;;;;;;5076342;28;20059;-84
2021/11/18 01:18:19;;;;;;;17.33;11.32;;;1.70;92.60;;;;;;5075756;28;20021;-86
2021/11/18 01:20:46;;;;;;;22.58;13.52;;;1.70;92.50;;;;;;5074363;28;20059;-83
2021/11/18 01:23:18;;;;;;;17.60;11.32;;;1.60;92.40;;;;;;5079270;28;20071;-84
2021/11/18 01:25:44;;;;;;;18.15;10.27;;;1.60;92.50;;;;;;5076726;28;20033;-83
2021/11/18 01:28:11;;;;;;;17.65;10.90;;;1.60;92.40;;;;;;5084913;28;20020;-83
2021/11/18 01:30:39;;;;;;;19.77;12.23;;;1.50;92.50;;;;;;5076479;28;20099;-83
2021/11/18 01:33:06;;;;;;;15.88;10.40;;;1.50;92.50;;;;;;5074816;28;20016;-85
2021/11/18 01:35:33;;;;;;;20.63;9.98;;;1.40;92.30;;;;;;5076890;28;20490;-88
2021/11/18 01:37:59;;;;;;;18.63;11.63;;;1.40;92.40;;;;;;5082730;28;20017;-85
2021/11/18 01:40:29;;;;;;;22.35;12.32;;;1.40;92.40;;;;;;5075476;28;20107;-84
2021/11/18 01:42:56;;;;;;;23.00;12.38;;;1.40;92.30;;;;;;5074593;28;20119;-84
2021/11/18 01:45:24;;;;;;;18.03;12.07;;;1.50;92.30;;;;;;5075251;28;20107;-84
2021/11/18 01:47:50;;;;;;;19.27;11.73;;;1.50;92.10;;;;;;5075141;28;20329;-84
2021/11/18 01:50:20;;;;;;;18.35;11.90;;;1.50;92.00;;;;;;5075036;28;20024;-84
2021/11/18 01:52:47;;;;;;;22.48;10.68;;;1.50;91.90;;;;;;5074842;28;20016;-83
2021/11/18 01:55:15;;;;;;;;;;;1.50;91.70;;;;;;5075179;28;20028;-82
2021/11/18 01:57:41;;;;;;;24.02;11.95;;;1.40;91.60;;;;;;5075490;28;19908;-82
2021/11/18 02:00:12;;;;;;;17.00;10.90;;;1.40;91.50;;;;;;5074814;28;20078;-83
2021/11/18 02:02:38;;;;;;;19.92;12.60;;;1.40;91.40;;;;;;5073298;28;20017;-83
2021/11/18 02:05:15;;;;;;;17.80;10.77;;;1.40;91.40;;;;;;5074657;28;20055;-81
2021/11/18 02:07:43;;;;;;;20.73;12.57;;;1.50;91.30;;;;;;5075010;28;20027;-84
2021/11/18 02:10:12;;;;;;;24.60;11.40;;;1.40;91.00;;;;;;5074421;28;20090;-82
2021/11/18 02:12:38;;;;;;;19.23;10.80;;;1.40;90.90;;;;;;5074586;28;20017;-84
2021/11/18 02:15:18;;;;;;;16.98;10.55;;;1.50;90.80;;;;;;5075030;28;20032;-85
2021/11/18 02:17:49;;;;;;;23.08;13.02;;;1.50;90.70;;;;;;5075142;28;20020;-85
2021/11/18 02:20:25;;;;;;;21.98;12.90;;;1.50;90.50;;;;;;5074739;28;20029;-84
2021/11/18 02:22:52;;;;;;;23.02;11.10;;;1.40;90.30;;;;;;5074294;28;20078;-85
2021/11/18 02:25:18;;;;;;;20.33;11.05;;;1.40;90.20;;;;;;5074587;28;20059;-86
2021/11/18 02:27:44;;;;;;;19.83;11.32;;;1.30;90.20;;;;;;5074429;28;20441;-83
2021/11/18 02:30:11;;;;;;;21.08;12.15;;;1.30;90.30;;;;;;5075537;28;20048;-83
2021/11/18 02:32:40;;;;;;;18.42;13.07;;;1.30;90.30;;;;;;5073828;28;20377;-81
2021/11/18 02:35:23;;;;;;;21.65;12.55;;;1.30;90.20;;;;;;5074398;28;20033;-82
2021/11/18 02:37:50;;;;;;;19.83;12.73;;;1.30;90.20;;;;;;5076988;28;20524;-83
2021/11/18 02:40:17;;;;;;;21.60;12.07;;;1.30;90.20;;;;;;5075317;28;20024;-81
2021/11/18 02:42:44;;;;;;;20.13;11.60;;;1.40;90.20;;;;;;5097270;28;20028;-83
2021/11/18 02:45:14;;;;;;;17.47;10.87;;;1.40;90.10;;;;;;5077667;28;20036;-83
2021/11/18 02:47:40;;;;;;;19.38;10.95;;;1.40;89.80;;;;;;5084761;28;20492;-80
2021/11/18 02:50:09;;;;;;;15.80;10.35;;;1.30;89.80;;;;;;5092685;28;20024;-82
2021/11/18 02:52:35;;;;;;;20.05;11.63;;;1.30;90.00;;;;;;5079715;28;20509;-84
2021/11/18 02:55:07;;;;;;;19.42;11.85;;;1.30;89.90;;;;;;5075307;28;20032;-85
2021/11/18 02:57:33;;;;;;;17.88;10.80;;;1.20;90.00;;;;;;5074019;28;20484;-82
2021/11/18 02:59:59;;;;;;;19.63;11.60;;;1.20;90.00;;;;;;5074044;28;20031;-83
2021/11/18 03:02:24;;;;;;;19.45;11.50;;;1.20;90.00;;;;;;5073813;28;20048;-83
2021/11/18 03:04:51;;;;;;;20.02;12.20;;;1.20;89.70;;;;;;5073347;28;20120;-82
2021/11/18 03:07:17;;;;;;;17.52;11.95;;;1.20;89.60;;;;;;5072602;28;20040;-83
2021/11/18 03:09:43;;;;;;;16.42;11.93;;;1.20;89.30;;;;;;5073114;28;20028;-82
2021/11/18 03:12:09;;;;;;;15.80;9.63;;;1.20;89.10;;;;;;5073164;28;20020;-82
2021/11/18 03:14:35;;;;;;;15.43;8.38;;;1.10;89.10;;;;;;5074780;28;20424;-84
2021/11/18 03:17:01;;;;;;;15.90;10.25;;;0.90;89.00;;;;;;5076457;28;20036;-82
2021/11/18 03:19:28;;;;;;;20.02;11.68;;;0.80;90.20;;;;;;5073605;28;20023;-85
2021/11/18 03:21:54;;;;;;;22.30;12.15;;;0.80;90.00;;;;;;5073876;28;20077;-83
2021/11/18 03:24:21;;;;;;;18.85;14.00;;;0.80;90.10;;;;;;5073613;28;20186;-83
2021/11/18 03:26:47;;;;;;;17.80;11.25;;;0.80;89.90;;;;;;5073639;28;20020;-83
2021/11/18 03:29:13;;;;;;;23.60;12.43;;;0.90;89.40;;;;;;5073686;28;20016;-83
2021/11/18 03:31:39;;;;;;;19.98;12.93;;;0.80;89.00;;;;;;5073228;28;20028;-82
2021/11/18 03:34:12;;;;;;;19.83;13.02;;;0.70;88.90;;;;;;5075505;28;20024;-82
2021/11/18 03:36:39;;;;;;;25.55;15.13;;;0.70;88.90;;;;;;5075798;28;20020;-84
2021/11/18 03:39:08;;;;;;;28.35;13.82;;;0.70;88.70;;;;;;5073368;28;20052;-83
2021/11/18 03:41:37;;;;;;;21.75;12.55;;;0.70;88.50;;;;;;5071678;28;20031;-82
2021/11/18 03:44:05;;;;;;;22.70;12.20;;;0.70;88.60;;;;;;5071717;28;20082;-83
2021/11/18 03:46:42;;;;;;;26.08;14.07;;;0.70;89.00;;;;;;5073231;28;20033;-83
2021/11/18 03:49:10;;;;;;;26.85;14.98;;;0.60;88.20;;;;;;5072937;28;20355;-82
2021/11/18 03:51:36;;;;;;;22.83;13.07;;;0.60;88.00;;;;;;5073544;28;20028;-83
2021/11/18 03:54:05;;;;;;;25.65;14.05;;;0.60;87.80;;;;;;5073267;28;20020;-83
2021/11/18 03:56:38;;;;;;;23.70;13.23;;;0.60;87.70;;;;;;5073411;28;20032;-83
2021/11/18 03:59:25;;;;;;;24.90;14.30;;;0.50;87.80;;;;;;5073622;28;20031;-85
2021/11/18 04:01:52;;;;;;;31.13;15.27;;;0.50;88.10;;;;;;5073194;28;20041;-83
2021/11/18 04:04:25;;;;;;;29.20;16.42;;;0.60;88.00;;;;;;5073235;28;20406;-82
2021/11/18 04:06:52;;;;;;;26.60;17.90;;;0.50;87.90;;;;;;5075658;28;20037;-86
2021/11/18 04:09:19;;;;;;;28.30;19.02;;;0.50;87.80;;;;;;5077674;28;20484;-86
2021/11/18 04:11:48;;;;;;;30.67;19.35;;;0.60;88.00;;;;;;5076934;28;20583;-85
2021/11/18 04:14:15;;;;;;;27.67;15.38;;;0.60;87.80;;;;;;5077071;28;20098;-85
2021/11/18 04:16:41;;;;;;;27.40;15.85;;;0.60;87.80;;;;;;5077898;28;20031;-85
2021/11/18 04:19:08;;;;;;;31.20;17.48;;;0.60;87.70;;;;;;5078526;28;20405;-83
2021/11/18 04:21:35;;;;;;;31.25;16.02;;;0.60;87.80;;;;;;5081800;28;20024;-84
2021/11/18 04:24:05;;;;;;;26.58;15.07;;;0.60;87.80;;;;;;5077579;28;20020;-83
2021/11/18 04:26:31;;;;;;;27.88;15.13;;;0.40;87.80;;;;;;5074995;28;20581;-83
2021/11/18 04:28:58;;;;;;;24.45;14.95;;;0.40;88.00;;;;;;5077529;28;20056;-82
2021/11/18 04:31:25;;;;;;;29.25;17.17;;;0.50;88.00;;;;;;5079036;28;20021;-85
2021/11/18 04:33:51;;;;;;;32.75;16.40;;;0.40;88.20;;;;;;5089114;28;20062;-88
2021/11/18 04:36:19;;;;;;;33.88;16.77;;;0.50;88.20;;;;;;5091990;28;20375;-85
2021/11/18 04:38:46;;;;;;;33.20;18.00;;;0.40;88.10;;;;;;5080544;28;20080;-85
2021/11/18 04:41:13;;;;;;;31.55;19.30;;;0.30;88.40;;;;;;5081283;28;20490;-82
2021/11/18 04:43:41;;;;;;;32.20;18.80;;;0.40;88.40;;;;;;5081176;28;20072;-84
2021/11/18 04:46:09;;;;;;;31.23;18.33;;;0.40;88.20;;;;;;5076463;28;20489;-85
2021/11/18 04:48:37;;;;;;;32.88;20.08;;;0.30;87.80;;;;;;5079425;28;20028;-86
2021/11/18 04:51:05;;;;;;;38.10;19.83;;;0.30;88.10;;;;;;5077002;28;20055;-85
2021/11/18 04:53:31;;;;;;;33.97;19.90;;;0.10;87.80;;;;;;5077493;28;20032;-86
2021/11/18 04:55:57;;;;;;;44.38;22.77;;;0.00;88.10;;;;;;5059603;28;20490;-87
2021/11/18 04:58:24;;;;;;;45.50;25.65;;;0.00;88.60;;;;;;5081532;28;20025;-87
2021/11/18 05:00:56;;;;;;;44.35;24.80;;;0.00;88.40;;;;;;5092588;28;20024;-86
2021/11/18 05:03:25;;;;;;;50.72;28.83;;;0.10;88.60;;;;;;5096963;28;20028;-83
2021/11/18 05:05:51;;;;;;;39.58;22.05;;;0.10;88.40;;;;;;5087877;28;20068;-85
2021/11/18 05:08:17;;;;;;;45.28;24.10;;;0.00;87.90;;;;;;5079378;28;20107;-85
2021/11/18 05:10:47;;;;;;;40.45;21.95;;;-0.10;88.20;;;;;;5078984;28;20025;-85
2021/11/18 05:13:15;;;;;;;49.13;23.58;;;-0.20;88.30;;;;;;5081880;28;20040;-85
2021/11/18 05:15:44;;;;;;;45.28;23.90;;;-0.20;88.30;;;;;;5076664;28;20047;-86
2021/11/18 05:18:11;;;;;;;47.30;26.90;;;-0.20;88.50;;;;;;5072774;28;20029;-84
2021/11/18 05:20:38;;;;;;;40.92;22.60;;;-0.20;88.40;;;;;;5075980;28;20031;-85
2021/11/18 05:23:05;;;;;;;;;;;-0.20;88.20;;;;;;5076795;28;20028;-85
2021/11/18 05:25:32;;;;;;;40.63;20.88;;;-0.20;88.20;;;;;;5076310;28;20274;-84
2021/11/18 05:27:59;;;;;;;55.90;25.73;;;-0.30;88.10;;;;;;5075156;28;20020;-85
2021/11/18 05:30:27;;;;;;;35.70;22.27;;;-0.40;88.30;;;;;;5076097;28;20039;-85
2021/11/18 05:32:55;;;;;;;46.63;25.40;;;-0.40;88.30;;;;;;5077337;28;20531;-86
2021/11/18 05:35:23;;;;;;;42.90;25.10;;;-0.50;88.60;;;;;;5077609;28;20389;-86
2021/11/18 05:37:49;;;;;;;46.00;23.85;;;-0.50;88.70;;;;;;5077191;28;20070;-86
2021/11/18 05:40:15;;;;;;;36.28;22.20;;;-0.50;88.90;;;;;;5075202;28;20474;-86
2021/11/18 05:42:43;;;;;;;41.90;23.23;;;-0.60;88.80;;;;;;5074835;28;20048;-85
2021/11/18 05:45:12;;;;;;;37.03;22.65;;;-0.70;88.90;;;;;;5078007;28;20128;-85
2021/11/18 05:47:38;;;;;;;45.80;26.40;;;-0.70;89.30;;;;;;5055345;28;20052;-87
2021/11/18 05:50:05;;;;;;;44.65;22.95;;;-0.70;89.60;;;;;;5058762;28;20546;-86
2021/11/18 05:52:31;;;;;;;47.60;29.35;;;-0.70;89.70;;;;;;5056465;28;20112;-88
2021/11/18 05:54:57;;;;;;;45.08;21.52;;;-0.70;89.90;;;;;;5056066;28;20057;-88
2021/11/18 05:57:23;;;;;;;40.70;22.15;;;-0.60;90.30;;;;;;5056585;28;20017;-86
2021/11/18 05:59:50;;;;;;;46.95;24.45;;;-0.60;89.70;;;;;;5056187;28;20036;-88
2021/11/18 06:02:17;;;;;;;47.58;29.63;;;-0.60;90.00;;;;;;5056295;28;20021;-88
2021/11/18 06:04:43;;;;;;;43.80;23.92;;;-0.60;89.90;;;;;;5056537;28;20032;-87
2021/11/18 06:07:08;;;;;;;50.33;28.55;;;-0.50;89.90;;;;;;5073234;28;20031;-87
2021/11/18 06:09:34;;;;;;;46.55;26.17;;;-0.40;89.70;;;;;;5086652;28;20017;-88
2021/11/18 06:12:00;;;;;;;57.80;27.42;;;-0.40;89.50;;;;;;5075625;28;20032;-86
2021/11/18 06:14:26;;;;;;;46.90;26.70;;;-0.40;89.40;;;;;;5080716;28;20021;-83
2021/11/18 06:16:53;;;;;;;44.70;26.17;;;-0.40;89.20;;;;;;5086292;28;20051;-84
2021/11/18 06:19:19;;;;;;;45.95;24.42;;;-0.40;89.50;;;;;;5065434;28;20378;-85
2021/11/18 06:21:48;;;;;;;52.72;27.40;;;-0.40;89.00;;;;;;5064272;28;20021;-88
2021/11/18 06:24:16;;;;;;;40.72;23.83;;;-0.40;89.10;;;;;;5058628;28;20032;-87
2021/11/18 06:26:42;;;;;;;;;;;-0.40;88.90;;;;;;5075375;28;20029;-85
2021/11/18 06:29:08;;;;;;;38.78;21.02;;;-0.40;89.00;;;;;;5056913;28;19905;-84
2021/11/18 06:31:34;;;;;;;37.88;20.33;;;-0.40;88.60;;;;;;5056664;28;20024;-86
2021/11/18 06:34:00;;;;;;;36.05;21.35;;;-0.40;88.40;;;;;;5066817;28;20385;-85
2021/11/18 06:36:26;;;;;;;38.45;23.60;;;-0.40;88.40;;;;;;5075662;28;20025;-85
2021/11/18 06:38:53;;;;;;;43.27;23.63;;;-0.40;88.40;;;;;;5072572;28;20050;-84
2021/11/18 06:41:22;;;;;;;36.15;20.33;;;-0.40;88.50;;;;;;5074063;28;20025;-88
2021/11/18 06:43:49;;;;;;;43.42;21.67;;;-0.40;88.50;;;;;;5074097;28;20040;-84
2021/11/18 06:46:17;;;;;;;40.85;24.33;;;-0.40;88.50;;;;;;5078859;28;20028;-85
2021/11/18 06:48:43;;;;;;;39.28;20.58;;;-0.40;88.90;;;;;;5075460;28;20123;-87
2021/11/18 06:51:13;;;;;;;40.78;23.45;;;-0.40;88.70;;;;;;5074450;28;20051;-89
2021/11/18 06:53:42;;;;;;;47.30;24.13;;;-0.40;88.70;;;;;;5053714;28;20501;-83
2021/11/18 06:56:09;;;;;;;41.08;23.38;;;-0.40;88.70;;;;;;5074744;28;20070;-85
2021/11/18 06:58:35;;;;;;;39.60;22.60;;;-0.40;88.80;;;;;;5075930;28;20027;-87
2021/11/18 07:01:01;;;;;;;37.35;22.83;;;-0.40;88.70;;;;;;5062071;28;20390;-86
2021/11/18 07:03:27;;;;;;;36.75;21.92;;;-0.40;88.50;;;;;;5077765;28;20052;-91
2021/11/18 07:05:53;;;;;;;37.50;17.48;;;-0.40;88.50;;;;;;5073523;28;20449;-90
2021/11/18 07:08:41;;;;;;;35.58;20.23;;;-0.30;88.30;;;;;;5063559;28;20025;-89
2021/11/18 07:11:08;;;;;;;34.40;19.40;;;-0.50;88.00;;;;;;5074771;28;20063;-89
2021/11/18 07:13:35;;;;;;;31.98;16.95;;;-0.60;88.10;;;;;;5073646;28;20012;-89
2021/11/18 07:16:04;;;;;;;39.38;20.63;;;-0.60;88.40;;;;;;5072278;28;20100;-88
2021/11/18 07:18:31;;;;;;;35.75;20.80;;;-0.60;88.80;;;;;;5061038;28;20025;-89
2021/11/18 07:21:06;;;;;;;36.53;21.23;;;-0.60;89.10;;;;;;5076979;28;20020;-90
2021/11/18 07:23:35;;;;;;;33.15;19.02;;;-0.60;89.20;;;;;;5077623;28;20112;-90
2021/11/18 07:26:02;;;;;;;36.83;18.60;;;-0.50;89.00;;;;;;5076577;28;20040;-92
2021/11/18 07:28:31;;;;;;;33.80;18.67;;;-0.50;89.00;;;;;;5075454;28;20496;-91
2021/11/18 07:31:00;;;;;;;42.33;21.50;;;-0.40;88.90;;;;;;5083053;28;20099;-88
2021/11/18 07:33:28;;;;;;;33.15;17.83;;;-0.40;89.00;;;;;;5085079;28;20100;-90
2021/11/18 07:35:56;;;;;;;34.83;19.85;;;-0.30;89.00;;;;;;5082108;28;20046;-91
2021/11/18 07:38:24;;;;;;;37.08;21.02;;;-0.30;88.90;;;;;;5082432;28;20032;-89
2021/11/18 07:40:51;;;;;;;46.03;23.35;;;-0.30;89.10;;;;;;5082158;28;20412;-89
2021/11/18 07:43:24;;;;;;;38.13;20.00;;;-0.30;89.20;;;;;;5081092;28;20060;-90
2021/11/18 07:45:52;;;;;;;34.70;20.38;;;-0.30;89.20;;;;;;5081368;28;20287;-90
2021/11/18 07:48:18;;;;;;;35.30;21.17;;;-0.30;89.50;;;;;;5080444;28;20021;-89
2021/11/18 07:50:46;;;;;;;34.50;18.85;;;-0.20;89.50;;;;;;5082181;28;20471;-88
2021/11/18 07:53:13;;;;;;;;;;;-0.30;89.00;;;;;;5079739;28;20359;-90
2021/11/18 07:55:40;;;;;;;34.35;18.55;;;-0.30;89.00;;;;;;5078516;28;19948;-89
2021/11/18 07:58:06;;;;;;;30.25;18.40;;;-0.30;89.00;;;;;;5080710;28;20020;-90
2021/11/18 08:00:32;;;;;;;37.83;20.60;;;-0.30;88.90;;;;;;5080805;28;20389;-91
2021/11/18 08:03:04;;;;;;;35.25;20.42;;;-0.30;89.10;;;;;;5080478;28;20027;-89
2021/11/18 08:05:30;;;;;;;42.38;19.65;;;-0.20;89.00;;;;;;5078356;28;20044;-88
2021/11/18 08:07:55;;;;;;;35.80;19.20;;;-0.10;89.20;;;;;;5079964;28;20070;-89
2021/11/18 08:10:27;;;;;;;32.75;19.50;;;-0.10;89.10;;;;;;5080844;28;20029;-90
2021/11/18 08:12:53;;;;;;;38.88;18.33;;;0.00;88.70;;;;;;5082525;28;20028;-88
2021/11/18 08:15:22;;;;;;;39.10;19.52;;;0.00;89.00;;;;;;5091594;28;20025;-90
2021/11/18 08:17:51;;;;;;;33.13;20.00;;;0.00;88.20;;;;;;5097184;28;20086;-89
2021/11/18 08:20:19;;;;;;;31.05;18.58;;;0.00;88.10;;;;;;5084730;28;20016;-87
2021/11/18 08:22:45;;;;;;;35.00;20.55;;;0.00;88.10;;;;;;5082336;28;20370;-88
2021/11/18 08:25:13;;;;;;;32.88;17.52;;;0.00;88.10;;;;;;5090050;28;20067;-89
2021/11/18 08:27:41;;;;;;;37.22;19.73;;;0.10;87.50;;;;;;5080996;28;20099;-89
2021/11/18 08:30:16;;;;;;;34.80;18.50;;;0.10;87.30;;;;;;5080633;28;20044;-91
2021/11/18 08:32:44;;;;;;;33.70;20.08;;;-0.10;86.70;;;;;;5080283;28;20020;-90
2021/11/18 08:35:12;;;;;;;;;;;-0.10;87.00;;;;;;5082130;28;20037;-90
2021/11/18 08:37:38;;;;;;;32.08;18.58;;;0.00;87.20;;;;;;5077805;28;20009;-90
2021/11/18 08:40:05;;;;;;;28.00;18.15;;;0.00;86.60;;;;;;5057238;28;20029;-90
2021/11/18 08:42:31;;;;;;;31.08;18.70;;;0.10;86.60;;;;;;5040047;28;20083;-90
2021/11/18 08:44:57;;;;;;;30.83;16.67;;;0.20;86.10;;;;;;5057593;28;20048;-90
2021/11/18 08:47:23;;;;;;;34.50;20.45;;;0.20;86.00;;;;;;5056377;28;20140;-89
2021/11/18 08:49:51;;;;;;;36.97;20.52;;;0.30;85.80;;;;;;5057764;28;20040;-88
2021/11/18 08:52:23;;;;;;;29.55;16.55;;;0.40;85.50;;;;;;5059037;28;20063;-91
2021/11/18 08:54:53;;;;;;;26.85;15.90;;;0.50;84.90;;;;;;5057397;28;20024;-90
2021/11/18 08:57:20;;;;;;;32.90;16.77;;;0.50;84.30;;;;;;5039803;28;20095;-88
2021/11/18 08:59:47;;;;;;;25.63;16.63;;;0.40;83.90;;;;;;5060266;28;20025;-89
2021/11/18 09:02:23;;;;;;;31.75;19.35;;;0.40;84.30;;;;;;5048572;28;20114;-91
2021/11/18 09:04:50;;;;;;;34.58;18.27;;;0.50;83.90;;;;;;5036454;28;20084;-88
2021/11/18 09:07:16;;;;;;;31.60;17.23;;;0.50;83.40;;;;;;5019763;28;20071;-89
2021/11/18 09:09:43;;;;;;;31.08;19.38;;;0.60;83.10;;;;;;5020966;28;20097;-88
2021/11/18 09:12:09;;;;;;;31.60;20.95;;;0.70;82.50;;;;;;5035703;28;20029;-88
2021/11/18 09:14:39;;;;;;;26.90;16.87;;;0.80;81.80;;;;;;5037656;28;20059;-88
2021/11/18 09:17:09;;;;;;;27.25;16.45;;;0.80;81.20;;;;;;5045898;28;20393;-88
2021/11/18 09:19:38;;;;;;;34.42;18.20;;;0.80;80.40;;;;;;5061989;28;20025;-89
2021/11/18 09:22:07;;;;;;;31.90;18.45;;;0.70;80.60;;;;;;5063318;28;20029;-89
2021/11/18 09:24:50;;;;;;;27.17;15.98;;;0.70;80.80;;;;;;5076445;28;20032;-89
2021/11/18 09:27:24;;;;;;;34.40;19.13;;;0.70;80.80;;;;;;5037937;28;20045;-89
2021/11/18 09:29:51;;;;;;;29.48;19.45;;;0.60;80.60;;;;;;5060506;28;20033;-88
2021/11/18 09:32:17;;;;;;;28.42;18.23;;;0.60;80.80;;;;;;5058693;28;20398;-89
2021/11/18 09:34:44;;;;;;;28.77;15.68;;;0.50;79.30;;;;;;5065716;28;20085;-88
2021/11/18 09:37:12;;;;;;;28.45;18.02;;;0.40;79.50;;;;;;5063832;28;20031;-88
2021/11/18 09:39:38;;;;;;;29.50;17.42;;;0.30;79.90;;;;;;5058194;28;20025;-90
2021/11/18 09:42:16;;;;;;;31.13;17.48;;;0.30;79.90;;;;;;5062204;28;20036;-89
2021/11/18 09:45:13;;;;;;;29.02;17.85;;;0.40;79.90;;;;;;5064650;28;20449;-89
2021/11/18 09:48:14;;;;;;;31.67;18.83;;;0.40;79.30;;;;;;5061133;28;20035;-89
2021/11/18 09:50:49;;;;;;;32.63;21.35;;;0.50;79.00;;;;;;5057423;28;20044;-91
2021/11/18 09:54:09;;;;;;;41.90;18.92;;;0.40;78.70;;;;;;5056933;28;20095;-88
2021/11/18 09:57:07;;;;;;;30.23;17.33;;;0.50;79.10;;;;;;5034343;28;20029;-89
2021/11/18 09:59:50;;;;;;;33.65;18.45;;;0.40;79.10;;;;;;5033894;28;20068;-90
2021/11/18 10:02:21;;;;;;;28.45;17.90;;;0.30;79.10;;;;;;5022800;28;20097;-90
2021/11/18 10:04:57;;;;;;;34.85;16.42;;;0.30;79.60;;;;;;5033908;28;20045;-90
2021/11/18 10:07:28;;;;;;;31.77;20.20;;;0.30;79.60;;;;;;5047201;28;20100;-85
2021/11/18 10:10:06;;;;;;;31.50;17.05;;;0.20;79.50;;;;;;5054212;28;20032;-88
2021/11/18 10:12:57;;;;;;;34.35;18.00;;;0.10;79.90;;;;;;5044106;28;20026;-88
2021/11/18 10:15:28;;;;;;;37.92;21.65;;;0.10;80.00;;;;;;5044172;28;20081;-88
2021/11/18 10:18:00;;;;;;;40.92;22.50;;;0.10;79.80;;;;;;5040798;28;20033;-89
2021/11/18 10:20:34;;;;;;;38.10;20.92;;;0.10;79.90;;;;;;5033603;28;20065;-89
2021/11/18 10:23:04;;;;;;;38.55;20.48;;;0.10;80.00;;;;;;5033669;28;20041;-89
2021/11/18 10:25:56;;;;;;;38.05;20.90;;;0.30;80.30;;;;;;5035411;28;20049;-87
2021/11/18 10:28:35;;;;;;;26.05;15.15;;;0.70;80.00;;;;;;5043321;28;20021;-87
2021/11/18 10:31:14;;;;;;;33.22;19.42;;;0.80;79.10;;;;;;5070991;28;20111;-88
2021/11/18 10:33:54;;;;;;;30.52;18.25;;;0.70;78.20;;;;;;5074636;28;20051;-88
2021/11/18 10:36:40;;;;;;;30.15;18.17;;;0.80;78.30;;;;;;5075795;28;20463;-89
2021/11/18 10:39:34;;;;;;;35.03;18.15;;;0.70;77.90;;;;;;5076960;28;20493;-89
2021/11/18 10:42:09;;;;;;;31.40;20.52;;;0.70;78.00;;;;;;5065299;28;20085;-89
2021/11/18 10:44:56;;;;;;;32.38;17.52;;;0.70;78.20;;;;;;5076399;28;20028;-88
2021/11/18 10:47:29;;;;;;;33.65;18.40;;;0.60;78.10;;;;;;5076537;28;20504;-87
2021/11/18 10:50:32;;;;;;;37.78;19.30;;;0.60;78.50;;;;;;5077057;28;20477;-87
2021/11/18 10:53:17;;;;;;;35.03;21.10;;;0.60;78.70;;;;;;5075229;28;20121;-90
2021/11/18 10:56:00;;;;;;;35.15;19.73;;;0.70;78.90;;;;;;5075196;28;20036;-90
2021/11/18 10:58:26;;;;;;;33.92;18.30;;;0.70;78.70;;;;;;5075855;28;20024;-88
2021/11/18 11:00:56;;;;;;;34.00;19.08;;;0.50;78.40;;;;;;5070474;28;20449;-90
2021/11/18 11:03:38;;;;;;;37.67;19.85;;;0.50;79.10;;;;;;5054917;28;20040;-89
2021/11/18 11:06:21;;;;;;;33.60;20.90;;;0.40;79.20;;;;;;5054476;28;20037;-89
2021/11/18 11:08:50;;;;;;;37.08;20.15;;;0.50;79.40;;;;;;5056975;28;20032;-89
2021/11/18 11:11:35;;;;;;;36.00;21.88;;;0.70;79.40;;;;;;5057104;28;20067;-89
2021/11/18 11:14:13;;;;;;;38.97;21.23;;;0.70;78.80;;;;;;5055153;28;20482;-89
2021/11/18 11:17:09;;;;;;;37.22;20.95;;;0.70;78.50;;;;;;5057460;28;20052;-90
2021/11/18 11:20:03;;;;;;;36.97;19.23;;;0.70;78.80;;;;;;5061702;28;20020;-89
2021/11/18 11:22:40;;;;;;;36.17;20.65;;;0.60;78.60;;;;;;5078546;28;20028;-89
2021/11/18 11:25:06;;;;;;;33.38;19.95;;;0.50;79.00;;;;;;5077603;28;20030;-90
2021/11/18 11:28:05;;;;;;;31.33;16.20;;;0.40;79.20;;;;;;5077912;28;20052;-89
2021/11/18 11:30:57;;;;;;;32.22;20.40;;;0.30;79.90;;;;;;5081818;28;20040;-87
2021/11/18 11:33:58;;;;;;;36.15;21.88;;;0.20;80.60;;;;;;5087209;28;20028;-90
2021/11/18 11:36:36;;;;;;;37.53;23.58;;;0.30;80.50;;;;;;5091594;28;20089;-88
2021/11/18 11:39:24;;;;;;;38.42;20.55;;;0.30;80.50;;;;;;5082185;28;20025;-89
2021/11/18 11:42:24;;;;;;;33.88;20.25;;;0.30;80.60;;;;;;5078024;28;20074;-88
2021/11/18 11:45:09;;;;;;;27.67;16.95;;;0.10;80.90;;;;;;5079210;28;20041;-89
2021/11/18 11:48:02;;;;;;;33.85;20.42;;;0.10;81.40;;;;;;5084446;28;20020;-89
2021/11/18 11:50:43;;;;;;;38.00;23.95;;;0.00;81.70;;;;;;5079706;28;20026;-88
2021/11/18 11:53:27;;;;;;;35.97;19.05;;;0.00;81.90;;;;;;5086731;28;20020;-88
2021/11/18 11:55:53;;;;;;;35.53;20.48;;;0.00;82.10;;;;;;5080272;28;20029;-87
2021/11/18 11:58:26;;;;;;;34.88;21.13;;;-0.10;82.70;;;;;;5086213;28;20143;-89
2021/11/18 12:01:10;;;;;;;26.50;15.20;;;-0.10;83.00;;;;;;5094142;28;20021;-88
2021/11/18 12:03:54;;;;;;;37.00;20.08;;;-0.10;83.10;;;;;;5094321;28;20040;-89
2021/11/18 12:06:39;;;;;;;30.45;15.40;;;-0.20;83.50;;;;;;5081613;28;20040;-89
2021/11/18 12:09:23;;;;;;;39.17;21.05;;;-0.20;83.70;;;;;;5090463;28;20021;-86
2021/11/18 12:12:05;;;;;;;33.47;21.38;;;-0.20;83.80;;;;;;5086973;28;20078;-86
2021/11/18 12:14:40;;;;;;;37.05;23.13;;;-0.10;84.10;;;;;;5075155;28;20027;-89
2021/11/18 12:17:08;;;;;;;42.63;23.58;;;0.00;84.00;;;;;;5079300;28;20021;-88
2021/11/18 12:19:49;;;;;;;39.20;19.75;;;0.10;83.80;;;;;;5068693;28;20048;-88
2021/11/18 12:22:34;;;;;;;43.20;22.23;;;0.10;83.70;;;;;;5057924;28;20033;-88
2021/11/18 12:25:08;;;;;;;41.25;23.98;;;0.10;83.80;;;;;;5057777;28;20083;-87
2021/11/18 12:27:38;;;;;;;33.70;22.75;;;0.10;83.90;;;;;;5057213;28;20033;-88
2021/11/18 12:30:33;;;;;;;41.95;27.05;;;0.10;84.10;;;;;;5058644;28;20025;-88
2021/11/18 12:33:06;;;;;;;42.03;24.83;;;0.20;84.00;;;;;;5070323;28;20013;-89
2021/11/18 12:35:32;;;;;;;32.45;19.20;;;0.20;83.80;;;;;;5062157;28;20157;-89
2021/11/18 12:38:41;;;;;;;42.30;23.65;;;0.30;83.80;;;;;;5057444;28;20114;-88
2021/11/18 12:41:35;;;;;;;45.08;24.67;;;0.30;83.90;;;;;;5059143;28;20029;-90
2021/11/18 12:44:04;;;;;;;35.75;21.52;;;0.20;83.90;;;;;;5060490;28;20052;-87
2021/11/18 12:47:04;;;;;;;45.15;22.85;;;0.20;84.00;;;;;;5060077;28;20131;-88
2021/11/18 12:50:10;;;;;;;40.80;24.45;;;0.20;84.30;;;;;;5058044;28;20067;-89
2021/11/18 12:52:36;;;;;;;;;;;0.30;84.50;;;;;;4978705;28;20031;-89
2021/11/18 12:55:14;;;;;;;44.95;24.23;;;0.30;84.40;;;;;;4977609;28;19906;-88
2021/11/18 12:57:50;;;;;;;47.53;26.23;;;0.20;84.40;;;;;;4980969;28;20059;-87